Time;durP1;ratioP1;P1;durP2;ratioP2;P2;SDS_P1;SDS_P2;PMS_P1;PMS_P2;Temp;Humidity;BMP_temperature;BMP_pressure;BME280_temperature;BME280_humidity;BME280_pressure;Samples;Min_cycle;Max_cycle;Signal;HPM_P1;HPM_P2
2023/05/05 00:00:19;;;;;;;;;;;13.40;89.00;;;;;;5042293;28;19955;-38
2023/05/05 00:02:46;;;;;;;;;;;13.40;89.20;;;;;;5044072;28;19937;-37
2023/05/05 00:05:13;;;;;;;;;;;13.30;90.50;;;;;;5049360;28;20019;-38
2023/05/05 00:07:39;;;;;;;;;;;13.40;90.10;;;;;;5054249;28;19941;-38
2023/05/05 00:10:06;;;;;;;;;;;13.30;90.00;;;;;;5042758;28;19933;-38
2023/05/05 00:12:33;;;;;;;;;;;13.30;90.60;;;;;;5049479;28;19936;-38
2023/05/05 00:15:01;;;;;;;;;;;13.40;90.60;;;;;;5049589;28;20009;-37
2023/05/05 00:17:28;;;;;;;;;;;13.40;90.20;;;;;;5044985;28;20014;-38
2023/05/05 00:19:54;;;;;;;;;;;13.30;91.20;;;;;;5036511;28;20020;-37
2023/05/05 00:22:21;;;;;;;;;;;13.40;91.00;;;;;;5048901;28;19960;-38
2023/05/05 00:24:48;;;;;;;;;;;13.40;91.20;;;;;;5037598;28;19944;-37
2023/05/05 00:27:14;;;;;;;;;;;13.40;91.00;;;;;;5040264;28;19990;-38
2023/05/05 00:29:41;;;;;;;;;;;13.30;92.00;;;;;;5034460;28;19934;-38
2023/05/05 00:32:09;;;;;;;;;;;13.30;91.60;;;;;;5050575;28;19939;-38
2023/05/05 00:34:36;;;;;;;;;;;13.30;91.70;;;;;;5046800;28;19939;-37
2023/05/05 00:37:03;;;;;;;;;;;13.30;92.00;;;;;;5036914;28;19950;-38
2023/05/05 00:39:29;;;;;;;;;;;13.30;92.30;;;;;;5042247;28;19957;-38
2023/05/05 00:41:56;;;;;;;;;;;13.30;92.50;;;;;;5043911;28;19947;-37
2023/05/05 00:44:31;;;;;;;;;;;13.40;92.20;;;;;;5035036;28;20095;-38
2023/05/05 00:46:57;;;;;;;;;;;13.30;92.60;;;;;;5036850;28;19983;-38
2023/05/05 00:49:25;;;;;;;;;;;13.30;92.80;;;;;;5041126;28;20380;-37
2023/05/05 00:51:52;;;;;;;;;;;13.30;92.50;;;;;;5048512;28;19970;-38
2023/05/05 00:54:19;;;;;;;;;;;13.30;93.10;;;;;;5045570;28;19937;-39
2023/05/05 00:56:46;;;;;;;;;;;13.30;93.20;;;;;;5035794;28;19948;-39
2023/05/05 00:59:13;;;;;;;;;;;13.30;93.20;;;;;;5051167;28;20440;-38
2023/05/05 01:01:40;;;;;;;;;;;13.20;93.10;;;;;;5043836;28;19962;-38
2023/05/05 01:04:07;;;;;;;;;;;13.20;92.80;;;;;;5039402;28;19947;-38
2023/05/05 01:06:39;;;;;;;;;;;13.20;93.30;;;;;;5048302;28;19932;-38
2023/05/05 01:09:07;;;;;;;;;;;13.20;93.20;;;;;;5046683;28;19985;-38
2023/05/05 01:11:35;;;;;;;;;;;13.30;93.80;;;;;;5032832;28;19937;-38
2023/05/05 01:14:05;;;;;;;;;;;13.20;93.90;;;;;;5034518;28;20009;-38
2023/05/05 01:16:33;;;;;;;;;;;13.20;93.60;;;;;;5037050;28;20392;-38
2023/05/05 01:19:00;;;;;;;;;;;13.20;93.40;;;;;;5039575;28;20014;-38
2023/05/05 01:21:30;;;;;;;;;;;13.10;94.00;;;;;;5045048;28;19957;-39
2023/05/05 01:24:10;;;;;;;;;;;13.10;94.20;;;;;;5045253;28;19940;-38
2023/05/05 01:26:46;;;;;;;;;;;13.10;93.60;;;;;;5049269;28;19934;-38
2023/05/05 01:29:19;;;;;;;;;;;13.10;93.90;;;;;;5039160;28;19935;-38
2023/05/05 01:31:50;;;;;;;;;;;13.10;94.30;;;;;;5048517;28;19938;-39
2023/05/05 01:34:19;;;;;;;;;;;13.00;94.60;;;;;;5039613;28;19937;-38
2023/05/05 01:36:46;;;;;;;;;;;13.10;94.70;;;;;;5049085;28;19938;-38
2023/05/05 01:39:14;;;;;;;;;;;13.00;94.50;;;;;;5050204;28;20062;-37
2023/05/05 01:41:41;;;;;;;;;;;13.00;95.00;;;;;;5045544;28;19948;-39
2023/05/05 01:44:09;;;;;;;;;;;13.00;95.10;;;;;;5050108;28;20024;-38
2023/05/05 01:46:35;;;;;;;;;;;13.00;95.00;;;;;;5050918;28;20044;-38
2023/05/05 01:49:03;;;;;;;;;;;13.00;94.80;;;;;;5050181;28;19945;-39
2023/05/05 01:51:30;;;;;;;;;;;13.00;95.00;;;;;;5049361;28;19987;-38
2023/05/05 01:53:58;;;;;;;;;;;13.00;94.70;;;;;;5050331;28;19941;-37
2023/05/05 01:56:24;;;;;;;;;;;12.90;95.40;;;;;;5050399;28;19942;-38
2023/05/05 01:58:51;;;;;;;;;;;13.00;94.60;;;;;;5038611;28;19943;-38
2023/05/05 02:01:18;;;;;;;;;;;12.90;95.20;;;;;;5033000;28;20007;-38
2023/05/05 02:03:45;;;;;;;;;;;12.90;94.70;;;;;;5038645;28;19933;-39
2023/05/05 02:06:13;;;;;;;;;;;12.90;95.30;;;;;;5032407;28;19940;-37
2023/05/05 02:08:40;;;;;;;;;;;12.90;95.20;;;;;;5049505;28;19939;-38
2023/05/05 02:11:07;;;;;;;;;;;12.90;95.20;;;;;;5047562;28;20388;-39
2023/05/05 02:13:33;;;;;;;;;;;12.80;95.60;;;;;;5041394;28;19984;-38
2023/05/05 02:16:00;;;;;;;;;;;12.80;96.00;;;;;;5045788;28;19975;-37
2023/05/05 02:18:27;;;;;;;;;;;12.80;95.70;;;;;;5032606;28;19998;-39
2023/05/05 02:20:54;;;;;;;;;;;12.80;95.80;;;;;;5051801;28;20451;-37
2023/05/05 02:23:22;;;;;;;;;;;12.80;95.70;;;;;;5051224;28;19994;-39
2023/05/05 02:25:49;;;;;;;;;;;12.80;95.40;;;;;;5048524;28;19975;-37
2023/05/05 02:28:19;;;;;;;;;;;12.80;96.00;;;;;;5043261;28;20459;-38
2023/05/05 02:30:46;;;;;;;;;;;12.80;96.20;;;;;;5039337;28;19940;-38
2023/05/05 02:33:13;;;;;;;;;;;12.70;95.80;;;;;;5049087;28;19936;-38
2023/05/05 02:35:40;;;;;;;;;;;12.70;95.70;;;;;;5031077;28;19958;-38
2023/05/05 02:38:08;;;;;;;;;;;12.70;96.20;;;;;;5037293;28;19999;-38
2023/05/05 02:40:36;;;;;;;;;;;12.70;96.70;;;;;;5039959;28;19987;-39
2023/05/05 02:43:04;;;;;;;;;;;12.70;96.40;;;;;;5032729;28;19939;-38
2023/05/05 02:45:31;;;;;;;;;;;12.70;96.10;;;;;;5037717;28;20287;-39
2023/05/05 02:47:57;;;;;;;;;;;12.60;96.30;;;;;;5034198;28;20368;-38
2023/05/05 02:50:24;;;;;;;;;;;12.70;96.50;;;;;;5043893;28;20350;-38
2023/05/05 02:52:51;;;;;;;;;;;12.70;96.00;;;;;;5037771;28;19946;-38
2023/05/05 02:55:17;;;;;;;;;;;12.60;95.90;;;;;;5032383;28;20003;-39
2023/05/05 02:57:47;;;;;;;;;;;12.60;96.20;;;;;;5032643;28;19968;-38
2023/05/05 03:00:15;;;;;;;;;;;12.60;96.60;;;;;;5032797;28;19989;-38
2023/05/05 03:02:43;;;;;;;;;;;12.60;96.30;;;;;;5036949;28;19953;-39
2023/05/05 03:05:11;;;;;;;;;;;12.60;96.90;;;;;;5044069;28;19949;-39
2023/05/05 03:07:39;;;;;;;;;;;12.60;96.60;;;;;;5044857;28;19933;-38
2023/05/05 03:10:07;;;;;;;;;;;12.60;97.00;;;;;;5050421;28;19941;-39
2023/05/05 03:12:36;;;;;;;;;;;12.60;97.20;;;;;;5042924;28;19980;-38
2023/05/05 03:15:04;;;;;;;;;;;12.60;96.80;;;;;;5055403;28;19988;-38
2023/05/05 03:17:31;;;;;;;;;;;12.60;97.70;;;;;;5035897;28;19991;-38
2023/05/05 03:19:57;;;;;;;;;;;12.60;97.50;;;;;;5034962;28;19943;-39
2023/05/05 03:22:26;;;;;;;;;;;12.60;97.40;;;;;;5051160;28;19943;-38
2023/05/05 03:24:53;;;;;;;;;;;12.50;97.60;;;;;;5053845;28;20309;-38
2023/05/05 03:27:20;;;;;;;;;;;12.50;97.40;;;;;;5034193;28;19939;-38
2023/05/05 03:29:46;;;;;;;;;;;12.50;97.10;;;;;;5035795;28;19938;-38
2023/05/05 03:32:15;;;;;;;;;;;12.50;96.80;;;;;;5045415;28;19944;-38
2023/05/05 03:34:42;;;;;;;;;;;12.50;97.00;;;;;;5036055;28;19971;-38
2023/05/05 03:37:08;;;;;;;;;;;12.50;96.60;;;;;;5046681;28;19982;-38
2023/05/05 03:39:35;;;;;;;;;;;12.50;96.50;;;;;;5051780;28;20029;-38
2023/05/05 03:42:02;;;;;;;;;;;12.50;96.60;;;;;;5053396;28;20045;-38
2023/05/05 03:44:29;;;;;;;;;;;12.50;97.30;;;;;;5036953;28;20069;-39
2023/05/05 03:46:56;;;;;;;;;;;12.50;97.60;;;;;;5040036;28;20305;-39
2023/05/05 03:49:23;;;;;;;;;;;12.50;97.60;;;;;;5047503;28;19975;-39
2023/05/05 03:51:50;;;;;;;;;;;12.40;97.40;;;;;;5036000;28;20378;-39
2023/05/05 03:54:17;;;;;;;;;;;12.50;97.40;;;;;;5053513;28;20382;-37
2023/05/05 03:56:43;;;;;;;;;;;12.40;97.80;;;;;;5050109;28;19982;-39
2023/05/05 03:59:10;;;;;;;;;;;12.40;98.50;;;;;;5042496;28;19937;-40
2023/05/05 04:01:37;;;;;;;;;;;12.30;99.30;;;;;;5047595;28;20295;-38
2023/05/05 04:04:03;;;;;;;;;;;12.30;99.90;;;;;;5050113;28;19941;-40
2023/05/05 04:06:31;;;;;;;;;;;12.20;99.90;;;;;;5045262;28;19996;-40
2023/05/05 04:08:58;;;;;;;;;;;12.10;99.90;;;;;;5051981;28;19938;-40
2023/05/05 04:11:25;;;;;;;;;;;12.10;99.90;;;;;;5040255;28;19941;-38
2023/05/05 04:13:51;;;;;;;;;;;12.10;99.90;;;;;;5051791;28;20470;-40
2023/05/05 04:16:18;;;;;;;;;;;12.00;99.90;;;;;;5049685;28;19989;-40
2023/05/05 04:18:45;;;;;;;;;;;11.90;99.90;;;;;;5048929;28;19936;-39
2023/05/05 04:21:11;;;;;;;;;;;11.90;99.90;;;;;;5046530;28;19986;-39
2023/05/05 04:23:39;;;;;;;;;;;11.90;99.90;;;;;;5045069;28;20421;-40
2023/05/05 04:26:06;;;;;;;;;;;11.90;99.90;;;;;;5043426;28;20032;-39
2023/05/05 04:28:33;;;;;;;;;;;11.80;99.90;;;;;;5048010;28;19935;-39
2023/05/05 04:31:00;;;;;;;;;;;11.80;99.90;;;;;;5044355;28;20039;-35
2023/05/05 04:33:26;;;;;;;;;;;11.80;99.90;;;;;;5034781;28;20384;-38
2023/05/05 04:35:53;;;;;;;;;;;11.80;99.90;;;;;;5034382;28;19957;-41
2023/05/05 04:38:20;;;;;;;;;;;11.80;99.90;;;;;;5037705;28;20009;-42
2023/05/05 04:40:48;;;;;;;;;;;11.80;99.90;;;;;;5045735;28;19979;-40
2023/05/05 04:43:15;;;;;;;;;;;11.70;99.90;;;;;;5051498;28;20002;-40
2023/05/05 04:45:41;;;;;;;;;;;11.70;99.90;;;;;;5048050;28;19944;-43
2023/05/05 04:48:08;;;;;;;;;;;11.70;99.90;;;;;;5051753;28;19976;-47
2023/05/05 04:50:35;;;;;;;;;;;11.70;99.90;;;;;;5047379;28;19979;-41
2023/05/05 04:53:02;;;;;;;;;;;11.70;99.90;;;;;;5048600;28;19935;-43
2023/05/05 04:55:29;;;;;;;;;;;11.70;99.90;;;;;;5048697;28;19944;-42
2023/05/05 04:57:57;;;;;;;;;;;11.60;99.90;;;;;;5036030;28;19971;-38
2023/05/05 05:00:23;;;;;;;;;;;11.70;99.90;;;;;;5043843;28;19986;-41
2023/05/05 05:02:51;;;;;;;;;;;11.70;99.90;;;;;;5045638;28;20291;-40
2023/05/05 05:05:18;;;;;;;;;;;11.60;99.90;;;;;;5045990;28;19978;-40
2023/05/05 05:07:44;;;;;;;;;;;11.60;99.90;;;;;;5048801;28;19975;-40
2023/05/05 05:10:11;;;;;;;;;;;11.60;99.90;;;;;;5050305;28;19943;-40
2023/05/05 05:12:38;;;;;;;;;;;11.60;99.90;;;;;;5037770;28;19921;-40
2023/05/05 05:15:07;;;;;;;;;;;11.60;99.90;;;;;;5036271;28;19968;-39
2023/05/05 05:17:33;;;;;;;;;;;11.70;99.90;;;;;;5037097;28;19932;-39
2023/05/05 05:20:03;;;;;;;;;;;11.70;99.90;;;;;;5051737;28;19936;-39
2023/05/05 05:22:30;;;;;;;;;;;11.70;99.90;;;;;;5048219;28;19956;-40
2023/05/05 05:24:56;;;;;;;;;;;11.60;99.90;;;;;;5043541;28;19940;-39
2023/05/05 05:27:23;;;;;;;;;;;11.70;99.90;;;;;;5047463;28;19938;-39
2023/05/05 05:29:50;;;;;;;;;;;11.70;99.90;;;;;;5045047;28;19972;-39
2023/05/05 05:32:18;;;;;;;;;;;11.70;99.90;;;;;;5044364;28;20318;-38
2023/05/05 05:34:45;;;;;;;;;;;11.80;99.90;;;;;;5047120;28;19986;-39
2023/05/05 05:37:11;;;;;;;;;;;11.80;99.90;;;;;;5048521;28;20453;-39
2023/05/05 05:39:38;;;;;;;;;;;11.90;99.90;;;;;;5041716;28;19959;-39
2023/05/05 05:42:05;;;;;;;;;;;11.90;99.90;;;;;;5042088;28;19957;-39
2023/05/05 05:44:32;;;;;;;;;;;12.00;99.90;;;;;;5047887;28;20077;-39
2023/05/05 05:46:58;;;;;;;;;;;12.00;99.90;;;;;;5045488;28;19938;-39
2023/05/05 05:49:26;;;;;;;;;;;12.10;99.90;;;;;;5041144;28;19933;-38
2023/05/05 05:51:53;;;;;;;;;;;12.20;99.90;;;;;;5041967;28;20016;-39
2023/05/05 05:54:20;;;;;;;;;;;12.20;99.90;;;;;;5047402;28;20424;-39
2023/05/05 05:56:46;;;;;;;;;;;12.30;99.90;;;;;;5048877;28;19956;-39
2023/05/05 05:59:13;;;;;;;;;;;12.20;99.90;;;;;;5050384;28;19935;-37
2023/05/05 06:01:40;;;;;;;;;;;12.30;99.90;;;;;;5048656;28;19985;-39
2023/05/05 06:04:06;;;;;;;;;;;12.40;99.90;;;;;;5047244;28;19935;-35
2023/05/05 06:06:34;;;;;;;;;;;12.40;99.90;;;;;;5044210;28;20038;-39
2023/05/05 06:09:01;;;;;;;;;;;12.40;99.90;;;;;;5049155;28;19988;-38
2023/05/05 06:11:28;;;;;;;;;;;12.40;99.90;;;;;;5042954;28;19937;-39
2023/05/05 06:13:54;;;;;;;;;;;12.50;99.90;;;;;;5037457;28;20399;-39
2023/05/05 06:16:21;;;;;;;;;;;12.60;99.90;;;;;;5038993;28;19937;-38
2023/05/05 06:18:48;;;;;;;;;;;12.60;99.90;;;;;;5048610;28;19995;-38
2023/05/05 06:21:14;;;;;;;;;;;12.70;99.90;;;;;;5048897;28;19938;-38
2023/05/05 06:23:42;;;;;;;;;;;12.70;99.90;;;;;;5045067;28;19958;-38
2023/05/05 06:26:09;;;;;;;;;;;12.80;99.90;;;;;;5043296;28;19968;-39
2023/05/05 06:28:36;;;;;;;;;;;12.80;99.90;;;;;;5043569;28;19942;-38
2023/05/05 06:31:02;;;;;;;;;;;12.90;99.90;;;;;;5045875;28;19940;-37
2023/05/05 06:33:29;;;;;;;;;;;13.00;99.90;;;;;;5048064;28;19942;-38
2023/05/05 06:35:56;;;;;;;;;;;13.00;99.90;;;;;;5038128;28;19942;-38
2023/05/05 06:38:22;;;;;;;;;;;13.00;99.90;;;;;;5042583;28;20349;-38
2023/05/05 06:40:50;;;;;;;;;;;13.00;99.90;;;;;;5043902;28;20401;-38
2023/05/05 06:43:17;;;;;;;;;;;13.10;99.90;;;;;;5047080;28;19996;-37
2023/05/05 06:45:44;;;;;;;;;;;13.10;99.90;;;;;;5051061;28;19937;-38
2023/05/05 06:48:12;;;;;;;;;;;13.30;99.90;;;;;;5052746;28;20295;-37
2023/05/05 06:50:39;;;;;;;;;;;13.40;99.90;;;;;;5052393;28;19968;-38
2023/05/05 06:53:06;;;;;;;;;;;13.50;99.90;;;;;;5052606;28;20306;-37
2023/05/05 06:55:32;;;;;;;;;;;13.60;99.90;;;;;;5047947;28;19986;-37
2023/05/05 06:58:00;;;;;;;;;;;13.80;99.90;;;;;;5049375;28;20027;-37
2023/05/05 07:00:27;;;;;;;;;;;13.90;99.90;;;;;;5044216;28;19979;-37
2023/05/05 07:02:54;;;;;;;;;;;14.00;99.90;;;;;;5051864;28;19945;-36
2023/05/05 07:05:20;;;;;;;;;;;14.20;99.90;;;;;;5047880;28;19931;-36
2023/05/05 07:07:51;;;;;;;;;;;14.30;99.90;;;;;;5052464;28;20030;-37
2023/05/05 07:10:18;;;;;;;;;;;14.50;99.90;;;;;;5051708;28;19943;-38
2023/05/05 07:12:45;;;;;;;;;;;14.60;99.90;;;;;;5049062;28;19934;-38
2023/05/05 07:15:13;;;;;;;;;;;14.60;99.90;;;;;;5049197;28;19933;-38
2023/05/05 07:17:40;;;;;;;;;;;14.60;99.90;;;;;;5049901;28;19980;-38
2023/05/05 07:20:07;;;;;;;;;;;14.60;99.90;;;;;;5052501;28;19970;-38
2023/05/05 07:22:34;;;;;;;;;;;14.70;99.90;;;;;;5050147;28;19994;-38
2023/05/05 07:25:00;;;;;;;;;;;14.80;99.90;;;;;;5040925;28;20016;-37
2023/05/05 07:27:27;;;;;;;;;;;15.00;99.90;;;;;;5042105;28;20085;-38
2023/05/05 07:29:54;;;;;;;;;;;15.20;99.90;;;;;;5051905;28;20345;-37
2023/05/05 07:32:22;;;;;;;;;;;15.30;99.90;;;;;;5050554;28;19933;-38
2023/05/05 07:34:48;;;;;;;;;;;15.50;99.90;;;;;;5039283;28;20427;-37
2023/05/05 07:37:15;;;;;;;;;;;15.70;99.90;;;;;;5042121;28;20440;-38
2023/05/05 07:39:41;;;;;;;;;;;15.80;99.90;;;;;;5040230;28;19962;-39
2023/05/05 07:42:08;;;;;;;;;;;16.00;99.90;;;;;;5033930;28;19973;-37
2023/05/05 07:44:35;;;;;;;;;;;16.10;99.90;;;;;;5049387;28;20389;-38
2023/05/05 07:47:01;;;;;;;;;;;16.30;99.90;;;;;;5041871;28;19990;-37
2023/05/05 07:49:29;;;;;;;;;;;16.50;99.90;;;;;;5042309;28;19972;-38
2023/05/05 07:51:56;;;;;;;;;;;16.60;99.90;;;;;;5035554;28;20273;-38
2023/05/05 07:54:23;;;;;;;;;;;16.80;99.90;;;;;;5044984;28;20016;-38
2023/05/05 07:56:49;;;;;;;;;;;16.90;99.90;;;;;;5046119;28;19958;-37
2023/05/05 07:59:16;;;;;;;;;;;17.00;99.90;;;;;;5037837;28;20458;-38
2023/05/05 08:01:43;;;;;;;;;;;17.20;99.90;;;;;;5043206;28;19937;-38
2023/05/05 08:04:09;;;;;;;;;;;17.40;99.90;;;;;;5052144;28;19950;-38
2023/05/05 08:06:37;;;;;;;;;;;17.60;99.90;;;;;;5044933;28;19994;-36
2023/05/05 08:09:04;;;;;;;;;;;17.80;99.90;;;;;;5044779;28;20384;-38
2023/05/05 08:11:31;;;;;;;;;;;17.90;99.90;;;;;;5044768;28;20284;-38
2023/05/05 08:13:57;;;;;;;;;;;18.10;99.90;;;;;;5050687;28;20362;-38
2023/05/05 08:16:24;;;;;;;;;;;18.10;99.90;;;;;;5036643;28;20463;-38
2023/05/05 08:18:51;;;;;;;;;;;18.20;99.90;;;;;;5048592;28;20298;-37
2023/05/05 08:21:18;;;;;;;;;;;18.20;99.90;;;;;;5042580;28;19997;-38
2023/05/05 08:23:46;;;;;;;;;;;18.40;99.90;;;;;;5043232;28;19960;-38
2023/05/05 08:26:12;;;;;;;;;;;18.60;99.90;;;;;;5046599;28;19972;-37
2023/05/05 08:28:40;;;;;;;;;;;18.70;99.90;;;;;;5042687;28;19928;-38
2023/05/05 08:31:06;;;;;;;;;;;18.90;99.90;;;;;;5046201;28;19985;-38
2023/05/05 08:33:33;;;;;;;;;;;18.90;99.90;;;;;;5045683;28;19940;-39
2023/05/05 08:36:00;;;;;;;;;;;19.10;99.90;;;;;;5046656;28;20353;-36
2023/05/05 08:38:26;;;;;;;;;;;19.10;99.90;;;;;;5043558;28;19951;-37
2023/05/05 08:40:54;;;;;;;;;;;19.20;99.90;;;;;;5048096;28;19937;-38
2023/05/05 08:43:22;;;;;;;;;;;19.20;99.90;;;;;;5050801;28;20313;-38
2023/05/05 08:45:50;;;;;;;;;;;19.20;99.90;;;;;;5044173;28;19940;-38
2023/05/05 08:48:17;;;;;;;;;;;19.30;99.90;;;;;;5047516;28;20382;-38
2023/05/05 08:50:44;;;;;;;;;;;19.40;99.90;;;;;;5050082;28;19993;-38
2023/05/05 08:53:11;;;;;;;;;;;19.60;99.90;;;;;;5044279;28;19935;-38
2023/05/05 08:55:40;;;;;;;;;;;19.60;99.90;;;;;;5053240;28;19939;-38
2023/05/05 08:58:08;;;;;;;;;;;19.70;99.90;;;;;;5052420;28;19937;-38
2023/05/05 09:00:35;;;;;;;;;;;19.90;99.90;;;;;;5050543;28;20390;-38
2023/05/05 09:03:01;;;;;;;;;;;20.10;99.90;;;;;;5034024;28;19953;-37
2023/05/05 09:05:28;;;;;;;;;;;20.30;99.90;;;;;;5049767;28;19941;-38
2023/05/05 09:07:55;;;;;;;;;;;20.50;99.90;;;;;;5051419;28;19986;-39
2023/05/05 09:10:21;;;;;;;;;;;20.50;99.90;;;;;;5041886;28;19963;-39
2023/05/05 09:12:50;;;;;;;;;;;20.60;99.90;;;;;;5050353;28;19948;-37
2023/05/05 09:15:18;;;;;;;;;;;20.60;99.90;;;;;;5048629;28;20417;-38
2023/05/05 09:17:44;;;;;;;;;;;20.70;99.90;;;;;;5052611;28;20447;-38
2023/05/05 09:20:11;;;;;;;;;;;20.80;99.90;;;;;;5051724;28;19990;-38
2023/05/05 09:22:38;;;;;;;;;;;20.90;99.90;;;;;;5052197;28;19937;-38
2023/05/05 09:25:05;;;;;;;;;;;21.00;99.90;;;;;;5043927;28;20037;-38
2023/05/05 09:27:35;;;;;;;;;;;21.00;99.90;;;;;;5051571;28;19933;-39
2023/05/05 09:30:01;;;;;;;;;;;21.10;99.90;;;;;;5046560;28;20379;-38
2023/05/05 09:32:29;;;;;;;;;;;21.20;99.90;;;;;;5052056;28;19955;-38
2023/05/05 09:34:56;;;;;;;;;;;21.40;99.90;;;;;;5050232;28;20201;-39
2023/05/05 09:37:26;;;;;;;;;;;21.60;99.90;;;;;;5048950;28;19935;-38
2023/05/05 09:39:53;;;;;;;;;;;21.80;99.90;;;;;;5052491;28;20010;-38
2023/05/05 09:42:20;;;;;;;;;;;21.90;99.90;;;;;;5051317;28;20142;-38
2023/05/05 09:44:47;;;;;;;;;;;21.90;99.90;;;;;;5051534;28;19949;-38
2023/05/05 09:47:14;;;;;;;;;;;21.90;99.90;;;;;;5051530;28;20003;-39
2023/05/05 09:49:42;;;;;;;;;;;21.80;99.90;;;;;;5051635;28;19942;-38
2023/05/05 09:52:13;;;;;;;;;;;21.90;99.90;;;;;;5051584;28;19981;-38
2023/05/05 09:54:39;;;;;;;;;;;22.00;99.90;;;;;;5052487;28;19936;-39
2023/05/05 09:57:06;;;;;;;;;;;22.00;99.90;;;;;;5052431;28;20281;-38
2023/05/05 09:59:33;;;;;;;;;;;22.00;99.90;;;;;;5050434;28;19933;-36
2023/05/05 10:02:09;;;;;;;;;;;22.10;99.90;;;;;;5049599;28;20006;-39
2023/05/05 10:04:36;;;;;;;;;;;22.10;99.90;;;;;;5044141;28;19949;-36
2023/05/05 10:07:07;;;;;;;;;;;22.30;99.90;;;;;;5043026;28;19938;-39
2023/05/05 10:09:33;;;;;;;;;;;22.30;99.90;;;;;;5047628;28;19985;-36
2023/05/05 10:12:00;;;;;;;;;;;22.40;99.90;;;;;;5049356;28;19945;-36
2023/05/05 10:14:27;;;;;;;;;;;22.40;99.90;;;;;;5018423;28;20395;-37
2023/05/05 10:16:56;;;;;;;;;;;22.50;99.90;;;;;;5048832;28;19936;-37
2023/05/05 10:19:23;;;;;;;;;;;22.50;99.20;;;;;;5053184;28;20028;-38
2023/05/05 10:21:50;;;;;;;;;;;22.70;99.40;;;;;;5053270;28;19933;-38
2023/05/05 10:24:21;;;;;;;;;;;22.80;99.20;;;;;;5052022;28;19948;-38
2023/05/05 10:26:48;;;;;;;;;;;22.80;99.20;;;;;;5036455;28;20407;-38
2023/05/05 10:29:16;;;;;;;;;;;22.90;98.20;;;;;;5055192;28;20360;-38
2023/05/05 10:31:45;;;;;;;;;;;23.10;98.50;;;;;;5047352;28;19934;-37
2023/05/05 10:34:13;;;;;;;;;;;23.30;97.90;;;;;;5044060;28;19974;-38
2023/05/05 10:36:39;;;;;;;;;;;23.50;97.80;;;;;;5054290;28;19941;-37
2023/05/05 10:39:08;;;;;;;;;;;23.50;96.70;;;;;;5046461;28;20377;-37
2023/05/05 10:41:36;;;;;;;;;;;23.60;96.40;;;;;;5054444;28;20030;-37
2023/05/05 10:44:02;;;;;;;;;;;23.60;96.50;;;;;;5051918;28;20313;-38
2023/05/05 10:46:29;;;;;;;;;;;23.60;96.10;;;;;;5049328;28;19967;-37
2023/05/05 10:48:57;;;;;;;;;;;23.60;95.70;;;;;;5053526;28;19965;-37
2023/05/05 10:51:26;;;;;;;;;;;23.60;94.70;;;;;;5034598;28;20386;-38
2023/05/05 10:53:54;;;;;;;;;;;23.70;96.10;;;;;;5044862;28;19993;-38
2023/05/05 10:56:24;;;;;;;;;;;23.70;95.70;;;;;;5055618;28;19960;-38
2023/05/05 10:58:52;;;;;;;;;;;23.70;96.00;;;;;;5053898;28;19936;-38
2023/05/05 11:01:27;;;;;;;;;;;23.70;95.50;;;;;;5035844;28;19960;-38
2023/05/05 11:04:09;;;;;;;;;;;23.70;94.90;;;;;;5045580;28;20168;-38
2023/05/05 11:06:35;;;;;;;;;;;23.80;93.80;;;;;;5050504;28;20398;-38
2023/05/05 11:09:17;;;;;;;;;;;23.70;94.50;;;;;;5044330;28;19960;-38
2023/05/05 11:11:59;;;;;;;;;;;23.70;95.10;;;;;;5054021;28;19936;-38
2023/05/05 11:14:27;;;;;;;;;;;23.60;94.40;;;;;;5041310;28;20135;-38
2023/05/05 11:16:54;;;;;;;;;;;23.60;95.10;;;;;;5052544;28;19941;-38
2023/05/05 11:19:40;;;;;;;;;;;23.60;95.50;;;;;;5044779;28;20380;-38
2023/05/05 11:22:06;;;;;;;;;;;23.60;94.10;;;;;;5050303;28;20641;-38
2023/05/05 11:24:35;;;;;;;;;;;23.60;95.00;;;;;;5038891;28;19950;-38
2023/05/05 11:27:02;;;;;;;;;;;23.60;95.40;;;;;;5034357;28;20305;-38
2023/05/05 11:29:32;;;;;;;;;;;23.60;95.30;;;;;;5036001;28;19932;-38
2023/05/05 11:32:11;;;;;;;;;;;23.60;94.50;;;;;;5053416;28;19993;-38
2023/05/05 11:34:47;;;;;;;;;;;23.50;94.40;;;;;;5055148;28;19984;-38
2023/05/05 11:37:14;;;;;;;;;;;23.40;94.60;;;;;;5054995;28;19988;-38
2023/05/05 11:39:43;;;;;;;;;;;23.30;94.60;;;;;;5051421;28;19957;-38
2023/05/05 11:42:20;;;;;;;;;;;23.30;95.40;;;;;;5053439;28;19981;-37
2023/05/05 11:44:48;;;;;;;;;;;23.30;95.40;;;;;;5053241;28;19966;-37
2023/05/05 11:47:33;;;;;;;;;;;23.30;94.90;;;;;;5042227;28;20021;-37
2023/05/05 11:50:21;;;;;;;;;;;23.30;95.10;;;;;;5034744;28;19940;-38
2023/05/05 11:52:48;;;;;;;;;;;23.20;94.70;;;;;;5039631;28;19974;-37
2023/05/05 11:55:19;;;;;;;;;;;23.20;95.00;;;;;;5054670;28;20014;-38
2023/05/05 11:57:46;;;;;;;;;;;23.20;93.60;;;;;;5037856;28;20007;-38
2023/05/05 12:00:15;;;;;;;;;;;23.20;94.90;;;;;;5034601;28;20013;-39
2023/05/05 12:02:41;;;;;;;;;;;23.30;95.30;;;;;;5042560;28;19927;-38
2023/05/05 12:05:08;;;;;;;;;;;23.40;95.20;;;;;;5053015;28;19998;-38
2023/05/05 12:07:35;;;;;;;;;;;23.40;94.50;;;;;;5053470;28;19944;-38
2023/05/05 12:10:01;;;;;;;;;;;23.40;94.20;;;;;;5040464;28;19937;-38
2023/05/05 12:12:35;;;;;;;;;;;23.30;94.00;;;;;;5035023;28;19939;-38
2023/05/05 12:15:02;;;;;;;;;;;23.30;94.30;;;;;;5033278;28;20405;-38
2023/05/05 12:17:36;;;;;;;;;;;23.30;93.70;;;;;;5052534;28;19973;-38
2023/05/05 12:20:03;;;;;;;;;;;23.30;94.30;;;;;;5048952;28;20453;-39
2023/05/05 12:22:30;;;;;;;;;;;23.30;94.20;;;;;;5051604;28;19937;-38
2023/05/05 12:24:57;;;;;;;;;;;23.20;94.10;;;;;;5050527;28;19961;-38
2023/05/05 12:27:25;;;;;;;;;;;23.00;94.50;;;;;;5054188;28;19943;-37
2023/05/05 12:29:53;;;;;;;;;;;23.00;94.90;;;;;;5037898;28;19942;-39
2023/05/05 12:32:24;;;;;;;;;;;22.90;94.80;;;;;;5033983;28;19944;-38
2023/05/05 12:34:56;;;;;;;;;;;22.70;95.30;;;;;;5032823;28;19970;-37
2023/05/05 12:37:23;;;;;;;;;;;22.60;95.70;;;;;;5039478;28;20295;-36
2023/05/05 12:39:49;;;;;;;;;;;22.50;96.20;;;;;;5032365;28;20003;-36
2023/05/05 12:42:16;;;;;;;;;;;22.20;96.60;;;;;;5033274;28;19994;-38
2023/05/05 12:44:43;;;;;;;;;;;22.00;97.30;;;;;;5032895;28;20365;-38
2023/05/05 12:47:11;;;;;;;;;;;21.80;97.70;;;;;;5033717;28;19937;-39
2023/05/05 12:49:47;;;;;;;;;;;21.60;99.10;;;;;;5033620;28;19928;-39
2023/05/05 12:52:15;;;;;;;;;;;21.30;99.10;;;;;;5050606;28;19970;-38
2023/05/05 12:54:51;;;;;;;;;;;20.70;99.80;;;;;;5053594;28;19937;-39
2023/05/05 12:57:18;;;;;;;;;;;20.20;99.90;;;;;;5053362;28;19937;-40
2023/05/05 12:59:45;;;;;;;;;;;19.60;99.90;;;;;;5052420;28;19968;-39
2023/05/05 13:02:11;;;;;;;;;;;19.20;99.90;;;;;;5048893;28;20003;-38
2023/05/05 13:04:47;;;;;;;;;;;18.80;99.90;;;;;;5034079;28;20345;-41
2023/05/05 13:07:15;;;;;;;;;;;18.50;99.90;;;;;;5047371;28;19952;-39
2023/05/05 13:09:42;;;;;;;;;;;18.10;99.90;;;;;;5047800;28;19933;-37
2023/05/05 13:12:10;;;;;;;;;;;17.80;99.90;;;;;;5048684;28;20263;-38
2023/05/05 13:14:37;;;;;;;;;;;17.60;99.90;;;;;;5045976;28;20083;-38
2023/05/05 13:17:04;;;;;;;;;;;17.30;99.90;;;;;;5049911;28;20381;-40
2023/05/05 13:19:30;;;;;;;;;;;17.10;99.90;;;;;;5049612;28;19939;-44
2023/05/05 13:21:57;;;;;;;;;;;17.00;99.90;;;;;;5051278;28;20372;-45
2023/05/05 13:24:25;;;;;;;;;;;16.90;99.90;;;;;;5043122;28;20012;-43
2023/05/05 13:26:52;;;;;;;;;;;16.80;99.90;;;;;;5032793;28;19936;-40
2023/05/05 13:29:19;;;;;;;;;;;16.80;99.90;;;;;;5036104;28;20007;-39
2023/05/05 13:31:45;;;;;;;;;;;16.80;99.90;;;;;;5044234;28;19975;-42
2023/05/05 13:34:12;;;;;;;;;;;16.80;99.90;;;;;;5038395;28;19967;-44
2023/05/05 13:36:39;;;;;;;;;;;16.80;99.90;;;;;;5043219;28;20001;-41
2023/05/05 13:39:05;;;;;;;;;;;16.80;99.90;;;;;;5046051;28;19955;-43
2023/05/05 13:41:33;;;;;;;;;;;16.90;99.90;;;;;;5051863;28;19935;-43
2023/05/05 13:44:00;;;;;;;;;;;16.90;99.90;;;;;;5044467;28;19937;-40
2023/05/05 13:46:27;;;;;;;;;;;16.90;99.90;;;;;;5042998;28;19952;-44
2023/05/05 13:48:56;;;;;;;;;;;17.00;99.90;;;;;;5050258;28;19936;-46
2023/05/05 13:51:23;;;;;;;;;;;17.10;99.90;;;;;;5050973;28;20402;-40
2023/05/05 13:53:50;;;;;;;;;;;17.10;99.90;;;;;;5047015;28;19983;-41
2023/05/05 13:56:17;;;;;;;;;;;17.10;99.90;;;;;;5051405;28;20369;-41
2023/05/05 13:58:45;;;;;;;;;;;17.10;99.90;;;;;;5037753;28;19934;-42
2023/05/05 14:01:11;;;;;;;;;;;17.10;99.90;;;;;;5041565;28;19920;-40
2023/05/05 14:03:39;;;;;;;;;;;17.10;99.90;;;;;;5044580;28;19953;-40
2023/05/05 14:06:07;;;;;;;;;;;17.20;99.90;;;;;;5048062;28;19954;-41
2023/05/05 14:08:34;;;;;;;;;;;17.10;99.90;;;;;;5042021;28;19937;-40
2023/05/05 14:11:02;;;;;;;;;;;17.10;99.90;;;;;;5031327;28;19948;-40
2023/05/05 14:13:28;;;;;;;;;;;17.10;99.90;;;;;;5035769;28;19946;-41
2023/05/05 14:15:57;;;;;;;;;;;17.10;99.90;;;;;;5050907;28;19939;-41
2023/05/05 14:18:23;;;;;;;;;;;17.10;99.90;;;;;;5040867;28;20306;-39